Terminal Aerodrome Forecast
Issued by NWS Wilmington, NC

Home | Current Version | Previous Version | Text Only | Print | Product List | Glossary On
Versions: 1 2 3 4 5 6 7 8 9 10 11 12 13 14 15 16 17 18 19 20 21 22 23 24 25 26 27 28 29 30 31 32 33
000
FTUS42 KILM 221700
TAFFLO
TAF
KFLO 221726Z 2218/2318 05007KT P6SM VCSH BKN020 BKN060
     FM221930 10005KT 6SM SHRA SCT025 BKN035 BKN060
     FM230000 VRB03KT P6SM VCSH SCT025 BKN150
     FM230600 VRB02KT 2SM BR SCT002 BKN015 BKN150
     FM231400 28004KT P6SM VCSH FEW003 SCT015 SCT250=

USA.gov is the U.S. government's official web portal to all federal, state and local government web resources and services.